Time;durP1;ratioP1;P1;durP2;ratioP2;P2;SDS_P1;SDS_P2;PMS_P1;PMS_P2;Temp;Humidity;BMP_temperature;BMP_pressure;BME280_temperature;BME280_humidity;BME280_pressure;Samples;Min_cycle;Max_cycle;Signal;HPM_P1;HPM_P2
2022/05/30 00:01:29;;;;;;;3.63;1.88;;;8.80;95.70;;;;;;6231748;28;20042;-84
2022/05/30 00:04:31;;;;;;;5.43;1.50;;;8.70;95.60;;;;;;6227487;28;20089;-84
2022/05/30 00:07:33;;;;;;;5.93;2.13;;;8.70;95.80;;;;;;6228457;28;20042;-83
2022/05/30 00:10:35;;;;;;;3.55;1.70;;;8.70;95.90;;;;;;6230093;28;20601;-84
2022/05/30 00:13:38;;;;;;;5.93;1.80;;;8.60;95.90;;;;;;6229621;28;20053;-84
2022/05/30 00:16:40;;;;;;;3.58;1.80;;;8.60;96.00;;;;;;6226814;28;20048;-83
2022/05/30 00:19:42;;;;;;;3.25;1.60;;;8.50;96.00;;;;;;6227471;28;20041;-83
2022/05/30 00:22:43;;;;;;;1.77;1.58;;;8.50;96.00;;;;;;6228059;28;20061;-83
2022/05/30 00:25:45;;;;;;;2.75;1.80;;;8.50;96.10;;;;;;6226388;28;20065;-84
2022/05/30 00:28:48;;;;;;;5.70;1.58;;;8.50;96.00;;;;;;6228909;28;20172;-83
2022/05/30 00:31:51;;;;;;;4.57;2.15;;;8.40;96.00;;;;;;6229051;28;20045;-83
2022/05/30 00:34:53;;;;;;;2.97;1.85;;;8.40;96.20;;;;;;6227204;28;20417;-83
2022/05/30 00:37:56;;;;;;;2.30;1.70;;;8.30;96.20;;;;;;6227021;28;20042;-84
2022/05/30 00:40:58;;;;;;;4.82;2.08;;;8.30;96.20;;;;;;6225954;28;20127;-83
2022/05/30 00:44:01;;;;;;;10.85;1.75;;;8.30;96.20;;;;;;6226734;28;20056;-83
2022/05/30 00:47:03;;;;;;;4.18;1.63;;;8.30;96.30;;;;;;6226474;28;20495;-83
2022/05/30 00:50:07;;;;;;;4.90;2.40;;;8.20;96.30;;;;;;6217793;28;20043;-83
2022/05/30 00:53:09;;;;;;;6.50;2.95;;;8.20;96.40;;;;;;6202465;28;20048;-83
2022/05/30 00:56:13;;;;;;;2.35;1.65;;;8.20;96.50;;;;;;6205409;28;20046;-83
2022/05/30 00:59:16;;;;;;;6.25;2.15;;;8.20;96.50;;;;;;6210002;28;20046;-82
2022/05/30 01:02:19;;;;;;;1.92;1.42;;;8.10;96.30;;;;;;6246069;28;20057;-82
2022/05/30 01:08:41;;;;;;;3.33;1.63;;;8.10;96.50;;;;;;6254143;28;20037;-83
2022/05/30 01:11:55;;;;;;;4.50;1.73;;;8.00;96.40;;;;;;6254568;28;20041;-84
2022/05/30 01:14:58;;;;;;;3.53;2.13;;;8.00;96.30;;;;;;6254436;28;20678;-84
2022/05/30 01:18:05;;;;;;;2.60;1.70;;;8.00;96.40;;;;;;6254594;28;20519;-83
2022/05/30 01:21:34;;;;;;;3.08;1.67;;;7.90;96.40;;;;;;6254425;28;20057;-83
2022/05/30 01:24:46;;;;;;;5.18;1.95;;;7.80;96.40;;;;;;6253875;28;20049;-84
2022/05/30 01:27:55;;;;;;;2.65;1.75;;;7.80;96.50;;;;;;6254088;28;20047;-84
2022/05/30 01:30:58;;;;;;;2.13;1.30;;;7.80;96.50;;;;;;6254974;28;20049;-84
2022/05/30 01:34:00;;;;;;;3.67;1.52;;;7.70;96.50;;;;;;6246342;28;20042;-84
2022/05/30 01:37:02;;;;;;;2.72;1.70;;;7.70;96.50;;;;;;6229486;28;20129;-84
2022/05/30 01:40:05;;;;;;;4.75;1.73;;;7.70;96.50;;;;;;6228917;28;20046;-84
2022/05/30 01:43:07;;;;;;;2.30;1.40;;;7.70;96.50;;;;;;6230649;28;20119;-84
2022/05/30 01:46:13;;;;;;;2.83;1.73;;;7.60;96.50;;;;;;6228364;28;20052;-83
2022/05/30 01:49:15;;;;;;;2.45;1.58;;;7.60;96.50;;;;;;6227749;28;20647;-83
2022/05/30 01:52:17;;;;;;;4.07;1.60;;;7.60;96.60;;;;;;6227172;28;20053;-84
2022/05/30 01:55:18;;;;;;;2.90;1.92;;;7.50;96.60;;;;;;6228589;28;20056;-84
2022/05/30 01:58:20;;;;;;;4.07;2.25;;;7.50;96.70;;;;;;6227881;28;20048;-84
2022/05/30 02:01:26;;;;;;;4.47;1.55;;;7.50;96.80;;;;;;6227002;28;20052;-84
2022/05/30 02:04:27;;;;;;;3.28;1.52;;;7.40;96.80;;;;;;6226505;28;20049;-83
2022/05/30 02:07:29;;;;;;;3.33;2.00;;;7.40;96.90;;;;;;6226643;28;20493;-84
2022/05/30 02:10:31;;;;;;;3.08;2.33;;;7.40;96.80;;;;;;6227501;28;20068;-84
2022/05/30 02:13:33;;;;;;;7.03;2.17;;;7.40;96.90;;;;;;6226591;28;20104;-83
2022/05/30 02:19:56;;;;;;;3.13;1.70;;;7.20;96.80;;;;;;6224092;28;20038;-83
2022/05/30 02:22:58;;;;;;;4.18;1.85;;;7.30;97.10;;;;;;6224659;28;20065;-83
2022/05/30 02:25:59;;;;;;;5.38;1.90;;;7.30;97.10;;;;;;6224055;28;20528;-83
2022/05/30 02:29:02;;;;;;;6.25;2.15;;;7.20;97.10;;;;;;6224645;28;20046;-84
2022/05/30 02:32:06;;;;;;;4.95;2.33;;;7.20;97.20;;;;;;6224385;28;20046;-83
2022/05/30 02:38:27;;;;;;;7.55;2.15;;;7.10;97.10;;;;;;6246653;23;20521;-84
2022/05/30 02:41:29;;;;;;;4.38;1.80;;;7.10;97.20;;;;;;6177804;28;20063;-85
2022/05/30 02:44:31;;;;;;;4.25;1.92;;;7.10;97.10;;;;;;6178558;28;20186;-84
2022/05/30 02:47:34;;;;;;;3.35;1.95;;;7.10;97.10;;;;;;6179542;28;20128;-84
2022/05/30 02:50:36;;;;;;;4.47;2.05;;;7.10;97.10;;;;;;6178722;28;20140;-85
2022/05/30 02:53:38;;;;;;;4.43;1.67;;;7.00;97.10;;;;;;6178088;28;20125;-84
2022/05/30 02:56:40;;;;;;;3.10;1.83;;;7.00;97.10;;;;;;6180308;28;20050;-84
2022/05/30 02:59:42;;;;;;;6.05;2.13;;;7.00;97.00;;;;;;6180211;28;20190;-84
2022/05/30 03:02:45;;;;;;;4.28;1.95;;;6.90;97.00;;;;;;6181005;28;20050;-84
2022/05/30 03:05:47;;;;;;;5.75;1.80;;;6.90;96.90;;;;;;6183004;28;20053;-83
2022/05/30 03:08:50;;;;;;;5.43;1.90;;;6.90;97.00;;;;;;6181303;28;20150;-84
2022/05/30 03:11:52;;;;;;;3.28;1.80;;;6.90;97.10;;;;;;6176098;28;20039;-83
2022/05/30 03:14:53;;;;;;;3.92;2.25;;;6.80;97.10;;;;;;6176828;28;20043;-84
2022/05/30 03:17:57;;;;;;;4.00;2.13;;;6.80;97.20;;;;;;6175441;28;20043;-83
2022/05/30 03:20:59;;;;;;;4.25;1.95;;;6.80;97.20;;;;;;6175456;28;20053;-84
2022/05/30 03:24:00;;;;;;;3.80;1.65;;;6.70;97.10;;;;;;6175805;28;20685;-83
2022/05/30 03:27:02;;;;;;;3.50;1.98;;;6.70;97.50;;;;;;6177878;28;20129;-82
2022/05/30 03:30:06;;;;;;;3.60;1.95;;;6.70;97.20;;;;;;6175647;28;20053;-84
2022/05/30 03:33:09;;;;;;;2.45;1.80;;;6.70;97.20;;;;;;6177476;28;20057;-82
2022/05/30 03:36:16;;;;;;;4.07;2.53;;;6.70;97.10;;;;;;6177006;28;20043;-84
2022/05/30 03:39:18;;;;;;;3.00;1.75;;;6.70;97.10;;;;;;6177096;28;20051;-84
2022/05/30 03:42:20;;;;;;;5.53;2.50;;;6.70;97.10;;;;;;6178145;28;20418;-83
2022/05/30 03:45:22;;;;;;;3.85;2.33;;;6.70;97.10;;;;;;6177198;28;20070;-84
2022/05/30 03:48:25;;;;;;;4.85;2.17;;;6.60;97.10;;;;;;6176406;28;20038;-84
2022/05/30 03:51:27;;;;;;;3.00;1.55;;;6.60;97.10;;;;;;6177556;28;20117;-83
2022/05/30 03:54:29;;;;;;;8.35;3.05;;;6.70;97.10;;;;;;6177043;28;20487;-82
2022/05/30 03:57:30;;;;;;;5.53;2.22;;;6.70;97.50;;;;;;6176442;28;20070;-83
2022/05/30 04:00:33;;;;;;;3.13;2.13;;;6.70;97.20;;;;;;6176793;28;20053;-83
2022/05/30 04:03:37;;;;;;;4.57;2.00;;;6.80;97.10;;;;;;6176503;28;20050;-83
2022/05/30 04:06:39;;;;;;;2.20;1.20;;;6.80;97.00;;;;;;6176435;28;20453;-83
2022/05/30 04:09:41;;;;;;;4.07;1.67;;;6.90;96.90;;;;;;6176051;28;20046;-83
2022/05/30 04:12:43;;;;;;;4.32;1.52;;;7.00;96.80;;;;;;6175940;28;20053;-84
2022/05/30 04:15:44;;;;;;;2.70;1.75;;;7.10;96.70;;;;;;6175983;28;20043;-84
2022/05/30 04:18:48;;;;;;;3.03;2.08;;;7.30;96.60;;;;;;6176412;28;20173;-83
2022/05/30 04:21:50;;;;;;;3.40;2.17;;;7.40;96.40;;;;;;6175777;28;20062;-83
2022/05/30 04:24:53;;;;;;;4.53;1.90;;;7.50;96.30;;;;;;6176202;28;20106;-82
2022/05/30 04:27:55;;;;;;;5.38;1.98;;;7.70;96.10;;;;;;6183154;28;20039;-82
2022/05/30 04:30:57;;;;;;;3.35;1.88;;;7.80;96.00;;;;;;6205077;28;20077;-83
2022/05/30 04:34:00;;;;;;;2.95;1.75;;;8.10;96.00;;;;;;6191385;28;20121;-86
2022/05/30 04:37:02;;;;;;;3.53;1.77;;;8.80;95.70;;;;;;6188259;28;20069;-85
2022/05/30 04:40:05;;;;;;;4.60;2.03;;;10.80;93.40;;;;;;6188542;28;20070;-85
2022/05/30 04:43:07;;;;;;;1.92;1.23;;;13.20;90.50;;;;;;6187474;28;20585;-86
2022/05/30 04:46:12;;;;;;;3.08;1.60;;;15.00;84.20;;;;;;6184625;28;20046;-86
2022/05/30 04:49:16;;;;;;;9.07;1.48;;;16.60;78.10;;;;;;6183877;28;20077;-86
2022/05/30 04:52:17;;;;;;;4.90;1.23;;;18.00;73.30;;;;;;6182526;28;20063;-86
2022/05/30 04:55:21;;;;;;;3.13;1.02;;;19.30;68.90;;;;;;6183319;28;20177;-86
2022/05/30 04:58:22;;;;;;;4.82;1.38;;;20.50;64.10;;;;;;6182206;28;20058;-86
2022/05/30 05:01:25;;;;;;;2.65;1.48;;;21.20;59.70;;;;;;6182572;28;20053;-86
2022/05/30 05:04:28;;;;;;;2.28;1.25;;;22.00;56.40;;;;;;6182851;28;20061;-87
2022/05/30 05:07:36;;;;;;;3.97;2.88;;;22.90;53.60;;;;;;6183068;28;20065;-85
2022/05/30 05:10:46;;;;;;;1.88;1.25;;;23.70;50.70;;;;;;6184318;28;20147;-86
2022/05/30 05:13:48;;;;;;;5.90;1.88;;;24.40;48.60;;;;;;6182619;28;20049;-85
2022/05/30 05:16:50;;;;;;;1.80;1.17;;;25.10;46.60;;;;;;6182703;28;20417;-85
2022/05/30 05:19:53;;;;;;;2.33;1.45;;;25.80;44.80;;;;;;6182993;28;20043;-85
2022/05/30 05:22:55;;;;;;;2.25;1.33;;;26.10;43.30;;;;;;6187507;28;20058;-86
2022/05/30 05:25:57;;;;;;;5.05;1.85;;;26.40;42.30;;;;;;6185281;28;20071;-86
2022/05/30 05:28:59;;;;;;;1.00;0.90;;;26.80;41.40;;;;;;6183297;28;20054;-85
2022/05/30 05:32:01;;;;;;;2.30;1.08;;;27.00;40.60;;;;;;6184034;28;20042;-85
2022/05/30 05:35:06;;;;;;;3.00;2.25;;;27.80;40.00;;;;;;6185105;28;20055;-84
2022/05/30 05:38:08;;;;;;;2.40;1.50;;;29.10;38.10;;;;;;6181427;28;20045;-85
2022/05/30 05:41:10;;;;;;;2.33;1.20;;;30.50;36.50;;;;;;6180266;28;20070;-86
2022/05/30 05:44:13;;;;;;;2.10;1.10;;;31.60;34.80;;;;;;6180669;28;20154;-86
2022/05/30 05:47:15;;;;;;;5.28;1.60;;;32.40;33.50;;;;;;6180794;28;20141;-85
2022/05/30 05:50:18;;;;;;;3.45;1.67;;;32.40;32.40;;;;;;6182759;28;20054;-85
2022/05/30 05:53:20;;;;;;;2.33;1.67;;;32.20;32.40;;;;;;6182633;28;20055;-86
2022/05/30 05:56:24;;;;;;;1.85;1.00;;;31.90;32.40;;;;;;6182986;28;20049;-85
2022/05/30 05:59:26;;;;;;;1.63;1.35;;;32.30;32.40;;;;;;6183270;28;20126;-85
2022/05/30 06:02:30;;;;;;;3.72;1.30;;;32.90;30.80;;;;;;6183598;28;20054;-85
2022/05/30 06:05:33;;;;;;;6.75;1.73;;;32.70;30.80;;;;;;6183969;28;20051;-85
2022/05/30 06:08:36;;;;;;;4.43;1.33;;;32.60;30.80;;;;;;6183722;28;20101;-86
2022/05/30 06:11:37;;;;;;;2.70;1.33;;;32.70;30.80;;;;;;6178638;28;20039;-87
2022/05/30 06:14:39;;;;;;;1.90;1.40;;;33.00;30.30;;;;;;6178498;28;20053;-85
2022/05/30 06:17:41;;;;;;;2.85;1.23;;;33.20;30.00;;;;;;6180431;28;20055;-86
2022/05/30 06:20:45;;;;;;;2.15;1.08;;;33.90;29.80;;;;;;6179975;28;20046;-86
2022/05/30 06:23:48;;;;;;;2.63;1.08;;;33.80;29.10;;;;;;6180989;28;20634;-86
2022/05/30 06:26:50;;;;;;;1.95;0.90;;;32.30;29.50;;;;;;6195184;28;20038;-85
2022/05/30 06:29:52;;;;;;;2.55;1.45;;;31.40;30.00;;;;;;6180334;28;20051;-85
2022/05/30 06:32:54;;;;;;;3.42;1.17;;;31.00;30.80;;;;;;6180149;28;20047;-84
2022/05/30 06:35:57;;;;;;;3.50;1.08;;;30.50;30.90;;;;;;6177209;28;20050;-86
2022/05/30 06:38:59;;;;;;;2.58;1.08;;;29.90;31.70;;;;;;6178946;28;20148;-86
2022/05/30 06:42:01;;;;;;;3.40;1.30;;;30.50;32.10;;;;;;6176350;28;20055;-85
2022/05/30 06:45:03;;;;;;;4.55;1.50;;;31.30;31.10;;;;;;6176785;28;20049;-86
2022/05/30 06:48:05;;;;;;;4.22;1.00;;;31.70;30.50;;;;;;6177140;28;20046;-86
2022/05/30 06:51:11;;;;;;;4.50;1.40;;;31.90;30.00;;;;;;6176625;28;20069;-85
2022/05/30 06:54:13;;;;;;;3.35;1.15;;;31.70;29.80;;;;;;6178050;28;20051;-85
2022/05/30 07:00:34;;;;;;;2.60;1.27;;;31.00;30.80;;;;;;6186967;28;20066;-85
2022/05/30 07:03:36;;;;;;;2.13;0.88;;;31.60;30.30;;;;;;6180663;28;20403;-86
2022/05/30 07:06:39;;;;;;;1.27;0.90;;;31.60;29.90;;;;;;6177410;28;20051;-85
2022/05/30 07:09:42;;;;;;;3.95;1.02;;;31.50;29.90;;;;;;6179334;28;20047;-85
2022/05/30 07:12:44;;;;;;;1.20;0.57;;;31.50;30.10;;;;;;6179445;28;20067;-85
2022/05/30 07:15:48;;;;;;;6.40;1.25;;;31.60;29.90;;;;;;6178423;28;20053;-84
2022/05/30 07:18:52;;;;;;;1.05;0.70;;;31.20;29.90;;;;;;6179346;28;20051;-84
2022/05/30 07:21:55;;;;;;;3.03;0.90;;;30.60;30.30;;;;;;6176792;28;20070;-85
2022/05/30 07:24:57;;;;;;;3.05;0.77;;;30.60;31.00;;;;;;6150694;28;20540;-83
2022/05/30 07:27:59;;;;;;;1.85;0.70;;;31.10;30.40;;;;;;6176384;28;20477;-84
2022/05/30 07:31:05;;;;;;;8.65;2.85;;;30.80;30.10;;;;;;6178666;28;20461;-85
2022/05/30 07:34:07;;;;;;;5.70;1.40;;;30.70;30.40;;;;;;6178023;28;20070;-85
2022/05/30 07:37:11;;;;;;;2.15;0.88;;;31.10;30.80;;;;;;6180687;28;20054;-84
2022/05/30 07:40:14;;;;;;;0.98;0.60;;;31.80;30.00;;;;;;6181027;28;20098;-84
2022/05/30 07:43:16;;;;;;;3.75;0.90;;;32.20;29.70;;;;;;6179083;28;20061;-86
2022/05/30 07:46:20;;;;;;;3.20;1.35;;;31.90;29.70;;;;;;6180071;28;20047;-84
2022/05/30 07:49:22;;;;;;;1.70;1.10;;;32.10;29.80;;;;;;6196538;28;20074;-87
2022/05/30 07:52:25;;;;;;;4.82;0.80;;;33.00;29.10;;;;;;6191993;28;20043;-87
2022/05/30 07:55:29;;;;;;;1.92;0.75;;;33.00;29.20;;;;;;6189119;28;20126;-85
2022/05/30 07:58:31;;;;;;;1.95;0.70;;;32.40;29.50;;;;;;6183603;28;20402;-84
2022/05/30 08:01:33;;;;;;;1.65;0.65;;;32.80;29.60;;;;;;6182964;28;20047;-84
2022/05/30 08:04:37;;;;;;;3.00;1.05;;;33.20;28.80;;;;;;6188564;28;20390;-85
2022/05/30 08:07:42;;;;;;;3.78;1.05;;;33.70;29.00;;;;;;6187970;28;20046;-84
2022/05/30 08:10:44;;;;;;;2.38;0.57;;;33.80;28.40;;;;;;6188122;28;20064;-85
2022/05/30 08:13:49;;;;;;;3.90;0.80;;;33.40;28.60;;;;;;6183674;28;20051;-86
2022/05/30 08:16:51;;;;;;;4.70;0.95;;;33.90;28.80;;;;;;6187243;28;20046;-82
2022/05/30 08:19:53;;;;;;;2.45;0.75;;;34.00;28.10;;;;;;6185279;28;20038;-83
2022/05/30 08:22:56;;;;;;;1.88;0.85;;;33.10;29.40;;;;;;6187384;28;20493;-83
2022/05/30 08:25:58;;;;;;;4.13;0.80;;;32.60;28.90;;;;;;6185940;28;20086;-83
2022/05/30 08:29:00;;;;;;;3.47;0.60;;;32.90;29.10;;;;;;6185360;28;20046;-82
2022/05/30 08:32:02;;;;;;;1.35;0.40;;;33.40;29.00;;;;;;6186976;28;20046;-83
2022/05/30 08:35:13;;;;;;;2.08;0.50;;;33.50;28.20;;;;;;6187665;28;20058;-84
2022/05/30 08:38:16;;;;;;;2.45;0.90;;;33.10;27.80;;;;;;6189184;28;20050;-83
2022/05/30 08:44:47;;;;;;;2.45;0.60;;;32.30;29.10;;;;;;6200513;28;20501;-80
2022/05/30 08:47:51;;;;;;;3.78;0.75;;;31.90;28.90;;;;;;6231437;28;20052;-80
2022/05/30 08:51:04;;;;;;;5.20;0.60;;;31.90;28.50;;;;;;6228997;28;20050;-81
2022/05/30 08:54:25;;;;;;;2.90;0.60;;;32.30;28.40;;;;;;6226918;28;20056;-82
2022/05/30 08:57:37;;;;;;;2.88;0.70;;;32.90;28.40;;;;;;6226497;28;20056;-81
2022/05/30 09:00:44;;;;;;;2.90;0.93;;;32.90;27.90;;;;;;6228545;28;20337;-81
2022/05/30 09:04:07;;;;;;;1.85;0.70;;;33.40;28.30;;;;;;6228439;28;20416;-81
2022/05/30 09:07:14;;;;;;;2.50;0.60;;;34.20;28.10;;;;;;6230472;28;20050;-82
2022/05/30 09:10:23;;;;;;;1.90;0.43;;;34.90;26.80;;;;;;6229704;28;20053;-82
2022/05/30 09:13:33;;;;;;;6.57;0.80;;;34.70;26.90;;;;;;6229745;28;20427;-82
2022/05/30 09:16:37;;;;;;;2.00;0.65;;;34.90;27.10;;;;;;6225010;28;20531;-82
2022/05/30 09:19:41;;;;;;;1.85;0.60;;;35.30;26.80;;;;;;6225930;28;20493;-82
2022/05/30 09:22:44;;;;;;;2.20;0.60;;;35.80;26.50;;;;;;6226375;28;20056;-82
2022/05/30 09:26:00;;;;;;;3.80;0.70;;;36.10;26.50;;;;;;6225965;28;20125;-82
2022/05/30 09:29:04;;;;;;;3.95;0.55;;;35.90;26.20;;;;;;6225573;28;20077;-82
2022/05/30 09:32:13;;;;;;;3.03;0.80;;;36.10;26.10;;;;;;6225685;28;20071;-82
2022/05/30 09:35:22;;;;;;;1.45;0.60;;;36.40;25.90;;;;;;6226529;28;20054;-82
2022/05/30 09:38:24;;;;;;;4.93;0.82;;;36.30;26.00;;;;;;6226336;28;20493;-82
2022/05/30 09:41:29;;;;;;;2.10;0.70;;;36.20;26.10;;;;;;6226227;28;20509;-82
2022/05/30 09:44:42;;;;;;;2.67;0.90;;;36.30;26.00;;;;;;6226162;28;20049;-82
2022/05/30 09:47:58;;;;;;;3.10;0.68;;;36.00;25.30;;;;;;6225683;28;20046;-81
2022/05/30 09:51:00;;;;;;;1.42;0.47;;;35.10;25.90;;;;;;6229173;28;20071;-81
2022/05/30 09:54:02;;;;;;;1.30;0.45;;;34.80;26.20;;;;;;6225342;28;20517;-82
2022/05/30 09:57:12;;;;;;;1.52;0.57;;;35.00;25.70;;;;;;6226626;28;20045;-82
2022/05/30 10:00:20;;;;;;;3.15;0.52;;;35.50;25.60;;;;;;6225980;28;20041;-83
2022/05/30 10:03:31;;;;;;;1.25;0.88;;;35.70;25.30;;;;;;6225782;28;20497;-83
2022/05/30 10:06:32;;;;;;;7.50;0.70;;;35.70;25.60;;;;;;6226672;28;20053;-82
2022/05/30 10:09:35;;;;;;;2.22;0.63;;;35.30;25.30;;;;;;6225414;28;20045;-82
2022/05/30 10:12:44;;;;;;;1.88;0.65;;;34.70;25.20;;;;;;6225539;28;20054;-82
2022/05/30 10:15:56;;;;;;;4.35;0.40;;;33.70;26.00;;;;;;6226064;28;20421;-82
2022/05/30 10:19:00;;;;;;;2.80;0.68;;;32.80;27.30;;;;;;6223652;28;20065;-82
2022/05/30 10:29:15;;;;;;;2.20;0.50;;;28.70;29.50;;;;;;6223407;28;20042;-81
2022/05/30 10:32:23;;;;;;;0.90;0.45;;;27.90;30.40;;;;;;6224025;28;20042;-81
2022/05/30 10:35:33;;;;;;;1.38;0.50;;;27.50;30.40;;;;;;6224090;28;20060;-82
2022/05/30 10:38:47;;;;;;;5.53;0.63;;;26.90;31.20;;;;;;6224321;28;20144;-81
2022/05/30 10:41:53;;;;;;;1.83;0.70;;;26.50;31.00;;;;;;6225985;28;20046;-82
2022/05/30 10:45:00;;;;;;;3.80;0.93;;;26.40;31.50;;;;;;6224741;28;20057;-82
2022/05/30 10:48:04;;;;;;;1.40;0.53;;;26.20;31.20;;;;;;6223961;28;20420;-84
2022/05/30 10:51:10;;;;;;;2.60;0.63;;;26.40;31.40;;;;;;6225266;28;20105;-82
2022/05/30 10:54:19;;;;;;;0.75;0.30;;;26.50;31.10;;;;;;6224236;28;20060;-81
2022/05/30 10:57:26;;;;;;;2.28;0.57;;;26.40;30.70;;;;;;6223309;28;20050;-81
2022/05/30 11:00:34;;;;;;;0.75;0.40;;;26.40;31.30;;;;;;6222992;28;20056;-82
2022/05/30 11:03:42;;;;;;;2.38;0.63;;;26.80;32.10;;;;;;6223751;28;20053;-82
2022/05/30 11:06:48;;;;;;;2.08;0.80;;;27.30;31.60;;;;;;6225140;28;20315;-82
2022/05/30 11:09:57;;;;;;;4.28;0.90;;;27.90;31.60;;;;;;6222805;28;20509;-82
2022/05/30 11:13:05;;;;;;;1.00;0.47;;;28.20;30.60;;;;;;6223736;28;20056;-81
2022/05/30 11:16:28;;;;;;;3.70;0.70;;;28.30;30.00;;;;;;6229550;28;20049;-82
2022/05/30 11:19:41;;;;;;;1.30;0.50;;;27.70;29.90;;;;;;6244528;28;20081;-82
2022/05/30 11:22:47;;;;;;;2.15;0.40;;;27.00;30.70;;;;;;6238147;28;20561;-82
2022/05/30 11:26:12;;;;;;;3.22;0.65;;;26.60;30.80;;;;;;6224034;28;20053;-81
2022/05/30 11:29:26;;;;;;;2.70;0.75;;;25.90;31.20;;;;;;6232196;28;21473;-79
2022/05/30 11:32:51;;;;;;;0.63;0.50;;;25.20;32.10;;;;;;6249282;28;20129;-80
2022/05/30 11:36:04;;;;;;;2.15;0.50;;;25.00;32.80;;;;;;6249033;28;20115;-82
2022/05/30 11:39:23;;;;;;;2.33;0.60;;;25.20;32.10;;;;;;6251408;28;20060;-80
2022/05/30 11:42:30;;;;;;;;;;;24.90;32.00;;;;;;6248399;28;20046;-81
2022/05/30 11:45:50;;;;;;;5.03;0.52;;;24.00;32.50;;;;;;6249721;28;19921;-81
2022/05/30 11:48:59;;;;;;;12.00;1.10;;;23.40;33.50;;;;;;6239351;28;20416;-81
2022/05/30 11:52:12;;;;;;;3.47;0.57;;;23.60;33.40;;;;;;6248112;28;20041;-81
2022/05/30 11:55:23;;;;;;;3.13;0.47;;;24.40;32.50;;;;;;6248129;28;20057;-81
2022/05/30 11:58:32;;;;;;;2.53;0.60;;;25.10;30.30;;;;;;6247728;28;20057;-82
2022/05/30 12:01:36;;;;;;;3.13;0.55;;;25.80;32.20;;;;;;6246555;28;20056;-82
2022/05/30 12:05:15;;;;;;;2.60;0.60;;;26.80;31.30;;;;;;6247400;28;20181;-82
2022/05/30 12:08:38;;;;;;;5.40;0.60;;;27.70;30.80;;;;;;6224086;28;20052;-83
2022/05/30 12:12:15;;;;;;;2.20;0.70;;;28.40;29.60;;;;;;6249205;28;20124;-82
2022/05/30 12:15:50;;;;;;;2.55;0.63;;;28.50;29.20;;;;;;6240175;28;20052;-82
2022/05/30 12:25:55;;;;;;;4.32;0.40;;;28.90;27.80;;;;;;6246581;28;20159;-82
2022/05/30 12:28:57;;;;;;;1.17;0.40;;;28.70;27.40;;;;;;6248110;28;20103;-82
2022/05/30 12:32:16;;;;;;;3.60;0.52;;;28.80;28.00;;;;;;6247796;28;20118;-81
2022/05/30 12:35:23;;;;;;;4.57;0.65;;;28.60;27.50;;;;;;6247522;28;20413;-81
2022/05/30 12:38:58;;;;;;;0.65;0.30;;;28.70;27.40;;;;;;6247355;28;20050;-81
2022/05/30 12:42:03;;;;;;;2.00;0.82;;;28.10;27.80;;;;;;6247194;28;20711;-80
2022/05/30 12:45:20;;;;;;;3.33;0.63;;;27.90;27.70;;;;;;6247238;28;20049;-81
2022/05/30 12:48:29;;;;;;;1.23;0.40;;;27.70;28.00;;;;;;6247284;28;20119;-81
2022/05/30 12:51:41;;;;;;;1.02;0.57;;;27.50;28.30;;;;;;6250599;28;20046;-81
2022/05/30 12:55:02;;;;;;;0.40;0.20;;;27.40;28.00;;;;;;6252616;28;20049;-81
2022/05/30 12:58:04;;;;;;;1.20;0.30;;;27.10;28.40;;;;;;6251529;28;20057;-80
2022/05/30 13:01:11;;;;;;;3.85;0.65;;;27.60;27.50;;;;;;6252261;28;20057;-80
2022/05/30 13:04:25;;;;;;;2.78;0.40;;;28.00;26.90;;;;;;6251943;28;20052;-80
2022/05/30 13:07:30;;;;;;;0.80;0.22;;;27.80;26.10;;;;;;6251479;28;20053;-80
2022/05/30 13:10:40;;;;;;;1.92;0.40;;;27.10;26.20;;;;;;6251894;28;20049;-80
2022/05/30 13:13:47;;;;;;;1.00;0.40;;;26.80;27.70;;;;;;6253265;28;20056;-80
2022/05/30 13:16:52;;;;;;;3.63;0.52;;;27.20;27.20;;;;;;6252116;28;20057;-80
2022/05/30 13:19:56;;;;;;;1.63;0.50;;;27.30;27.30;;;;;;6244488;28;20102;-80
2022/05/30 13:23:01;;;;;;;1.13;0.60;;;27.60;27.60;;;;;;6243858;28;20143;-80
2022/05/30 13:26:11;;;;;;;1.60;0.50;;;28.00;27.20;;;;;;6248129;28;20045;-80
2022/05/30 13:29:13;;;;;;;1.67;0.60;;;28.10;28.00;;;;;;6242979;28;20046;-80
2022/05/30 13:32:16;;;;;;;1.70;0.50;;;27.60;28.20;;;;;;6252227;28;20115;-80
2022/05/30 13:35:20;;;;;;;0.60;0.25;;;26.90;28.60;;;;;;6251149;28;20135;-80
2022/05/30 13:38:29;;;;;;;1.90;0.40;;;26.60;29.00;;;;;;6251086;28;20103;-80
2022/05/30 13:41:39;;;;;;;3.70;0.20;;;26.50;28.80;;;;;;6250107;28;20044;-79
2022/05/30 13:44:42;;;;;;;3.45;0.47;;;26.30;28.60;;;;;;6250435;28;20049;-80
2022/05/30 13:47:44;;;;;;;1.27;0.20;;;26.00;29.20;;;;;;6245657;28;20119;-80
2022/05/30 13:50:49;;;;;;;2.22;0.43;;;25.80;29.90;;;;;;6248211;28;20417;-80
2022/05/30 13:53:52;;;;;;;1.88;0.43;;;25.50;29.80;;;;;;6249660;28;20516;-80
2022/05/30 13:56:56;;;;;;;2.10;0.43;;;25.30;30.00;;;;;;6250136;28;20535;-79
2022/05/30 14:00:01;;;;;;;1.80;0.52;;;25.00;30.20;;;;;;6249415;28;20124;-79
2022/05/30 14:03:04;;;;;;;1.13;0.35;;;24.60;30.00;;;;;;6250264;28;20072;-80
2022/05/30 14:06:20;;;;;;;2.53;0.57;;;24.40;30.70;;;;;;6250260;28;20064;-80
2022/05/30 14:09:24;;;;;;;1.38;0.50;;;24.50;30.80;;;;;;6250269;28;20045;-80
2022/05/30 14:12:31;;;;;;;1.10;0.50;;;24.60;30.40;;;;;;6250271;28;20041;-80
2022/05/30 14:15:33;;;;;;;1.65;0.43;;;24.40;30.00;;;;;;6249927;28;20045;-80
2022/05/30 14:18:47;;;;;;;1.95;0.38;;;24.30;29.90;;;;;;6249666;28;20092;-80
2022/05/30 14:21:54;;;;;;;1.95;0.88;;;24.60;29.70;;;;;;6249750;28;20176;-80
2022/05/30 14:25:01;;;;;;;0.47;0.33;;;24.50;30.70;;;;;;6239682;28;20045;-80
2022/05/30 14:28:12;;;;;;;2.15;0.47;;;24.70;30.10;;;;;;6227422;28;20372;-81
2022/05/30 14:31:17;;;;;;;3.70;0.65;;;24.80;29.70;;;;;;6226511;28;20157;-81
2022/05/30 14:34:21;;;;;;;3.20;0.35;;;24.60;29.60;;;;;;6228427;28;20060;-81
2022/05/30 14:37:27;;;;;;;2.80;0.40;;;24.80;29.50;;;;;;6251485;28;20045;-82
2022/05/30 14:40:35;;;;;;;1.63;0.60;;;24.90;29.20;;;;;;6263489;23;20081;-79
2022/05/30 14:43:47;;;;;;;;;;;25.10;29.10;;;;;;6223283;28;20043;-81
2022/05/30 14:46:51;;;;;;;1.67;0.60;;;25.60;28.90;;;;;;6212946;28;20036;-83
2022/05/30 14:50:04;;;;;;;1.13;0.35;;;26.10;28.60;;;;;;6230252;28;20046;-83
2022/05/30 14:53:07;;;;;;;1.88;0.73;;;26.70;27.90;;;;;;6229044;28;20042;-83
2022/05/30 14:56:13;;;;;;;1.75;0.40;;;26.90;28.50;;;;;;6229578;28;20045;-84
2022/05/30 14:59:32;;;;;;;0.47;0.30;;;27.20;28.30;;;;;;6228152;28;20521;-82
2022/05/30 15:05:54;;;;;;;1.83;0.47;;;26.90;28.20;;;;;;6225743;28;20125;-82
2022/05/30 15:08:56;;;;;;;2.05;0.30;;;26.80;28.00;;;;;;6224826;28;20050;-81
2022/05/30 15:11:58;;;;;;;1.42;0.32;;;26.80;28.10;;;;;;6226391;28;20045;-83
2022/05/30 15:15:01;;;;;;;1.80;0.30;;;26.60;28.00;;;;;;6226588;28;20057;-81
2022/05/30 15:18:03;;;;;;;0.55;0.30;;;26.60;28.50;;;;;;6225879;28;20168;-82
2022/05/30 15:21:05;;;;;;;4.10;0.98;;;26.40;28.50;;;;;;6225661;28;20521;-82
2022/05/30 15:24:15;;;;;;;1.92;0.57;;;26.40;28.90;;;;;;6226172;28;20046;-82
2022/05/30 15:27:18;;;;;;;1.10;0.30;;;26.90;28.40;;;;;;6225710;28;20054;-83
2022/05/30 15:30:21;;;;;;;2.22;0.60;;;27.30;28.10;;;;;;6225770;28;20049;-82
2022/05/30 15:33:24;;;;;;;1.52;0.40;;;27.50;28.60;;;;;;6224788;28;20046;-82
2022/05/30 15:36:26;;;;;;;1.38;0.68;;;26.90;28.10;;;;;;6224452;28;20421;-82
2022/05/30 15:39:28;;;;;;;0.80;0.30;;;26.20;28.80;;;;;;6227543;28;20184;-81
2022/05/30 15:42:31;;;;;;;2.50;0.38;;;25.60;29.10;;;;;;6229601;28;20069;-83
2022/05/30 15:45:37;;;;;;;1.35;0.63;;;25.00;29.80;;;;;;6232266;28;20054;-81
2022/05/30 15:48:39;;;;;;;2.40;0.57;;;24.80;31.20;;;;;;6220279;28;20077;-82
2022/05/30 15:51:41;;;;;;;0.88;0.38;;;24.80;31.50;;;;;;6226367;28;20043;-83
2022/05/30 15:58:06;;;;;;;2.90;0.47;;;24.10;31.40;;;;;;6201508;28;20525;-85
2022/05/30 16:01:09;;;;;;;8.18;1.50;;;23.70;32.20;;;;;;6200965;28;20589;-84
2022/05/30 16:04:11;;;;;;;1.58;0.40;;;23.20;32.80;;;;;;6202113;28;20121;-84
2022/05/30 16:07:15;;;;;;;1.50;0.40;;;22.80;33.60;;;;;;6201965;28;20054;-84
2022/05/30 16:10:18;;;;;;;1.02;0.30;;;22.70;33.90;;;;;;6201306;28;20105;-84
2022/05/30 16:13:21;;;;;;;0.55;0.38;;;22.60;33.60;;;;;;6201572;28;20876;-83
2022/05/30 16:16:24;;;;;;;2.22;0.43;;;22.40;34.10;;;;;;6200687;28;20042;-83
2022/05/30 16:19:26;;;;;;;4.72;1.00;;;22.40;33.90;;;;;;6218948;28;20049;-81
2022/05/30 16:22:31;;;;;;;3.75;1.10;;;22.40;34.20;;;;;;6226900;28;20060;-83
2022/05/30 16:25:34;;;;;;;2.05;0.40;;;22.70;33.60;;;;;;6230258;28;20089;-81
2022/05/30 16:28:35;;;;;;;0.85;0.40;;;22.90;33.50;;;;;;6205686;28;20055;-84
2022/05/30 16:31:39;;;;;;;0.65;0.30;;;22.90;33.00;;;;;;6206127;28;20560;-84
2022/05/30 16:34:41;;;;;;;0.60;0.38;;;23.00;32.70;;;;;;6205345;28;20046;-84
2022/05/30 16:37:43;;;;;;;0.98;0.43;;;23.00;32.90;;;;;;6205931;28;20418;-83
2022/05/30 16:40:45;;;;;;;1.30;0.50;;;23.20;32.30;;;;;;6205936;28;20056;-81
2022/05/30 16:43:47;;;;;;;1.05;0.30;;;23.30;32.50;;;;;;6204216;28;20063;-83
2022/05/30 16:46:51;;;;;;;1.65;0.40;;;23.50;32.20;;;;;;6209663;28;20050;-84